sensor_id;sensor_type;location;lat;lon;timestamp;temperature;humidity
24470;DHT22;12635;50.852;5.676;2023-07-16T00:02:00;17.00;99.90
24470;DHT22;12635;50.852;5.676;2023-07-16T00:04:27;16.80;99.90
24470;DHT22;12635;50.852;5.676;2023-07-16T00:06:54;16.70;99.90
24470;DHT22;12635;50.852;5.676;2023-07-16T00:09:21;16.60;99.90
24470;DHT22;12635;50.852;5.676;2023-07-16T00:11:47;16.60;99.90
24470;DHT22;12635;50.852;5.676;2023-07-16T00:14:14;16.50;99.90
24470;DHT22;12635;50.852;5.676;2023-07-16T00:16:43;16.30;99.90
24470;DHT22;12635;50.852;5.676;2023-07-16T00:19:10;16.30;99.90
24470;DHT22;12635;50.852;5.676;2023-07-16T00:21:36;16.10;99.90
24470;DHT22;12635;50.852;5.676;2023-07-16T00:24:04;16.00;99.90
24470;DHT22;12635;50.852;5.676;2023-07-16T00:26:30;16.00;99.90
24470;DHT22;12635;50.852;5.676;2023-07-16T00:28:57;16.00;99.90
24470;DHT22;12635;50.852;5.676;2023-07-16T00:31:24;15.90;99.90
24470;DHT22;12635;50.852;5.676;2023-07-16T00:33:52;15.90;99.90
24470;DHT22;12635;50.852;5.676;2023-07-16T00:36:19;16.00;99.90
24470;DHT22;12635;50.852;5.676;2023-07-16T00:38:46;16.00;99.90
24470;DHT22;12635;50.852;5.676;2023-07-16T00:41:13;16.00;99.90
24470;DHT22;12635;50.852;5.676;2023-07-16T00:43:40;15.90;99.90
24470;DHT22;12635;50.852;5.676;2023-07-16T00:46:07;16.00;99.90
24470;DHT22;12635;50.852;5.676;2023-07-16T00:48:35;16.00;99.90
24470;DHT22;12635;50.852;5.676;2023-07-16T00:51:03;16.00;99.90
24470;DHT22;12635;50.852;5.676;2023-07-16T00:53:31;16.00;99.90
24470;DHT22;12635;50.852;5.676;2023-07-16T00:55:58;16.20;99.90
24470;DHT22;12635;50.852;5.676;2023-07-16T00:58:25;16.20;99.90
24470;DHT22;12635;50.852;5.676;2023-07-16T01:00:52;16.40;99.90
24470;DHT22;12635;50.852;5.676;2023-07-16T01:03:19;16.50;99.90
24470;DHT22;12635;50.852;5.676;2023-07-16T01:05:47;16.60;99.90
24470;DHT22;12635;50.852;5.676;2023-07-16T01:08:18;16.70;99.90
24470;DHT22;12635;50.852;5.676;2023-07-16T01:10:47;16.90;99.90
24470;DHT22;12635;50.852;5.676;2023-07-16T01:13:14;17.00;99.90
24470;DHT22;12635;50.852;5.676;2023-07-16T01:15:41;17.20;99.90
24470;DHT22;12635;50.852;5.676;2023-07-16T01:18:08;17.20;99.90
24470;DHT22;12635;50.852;5.676;2023-07-16T01:20:35;17.10;99.90
24470;DHT22;12635;50.852;5.676;2023-07-16T01:23:12;17.20;99.90
24470;DHT22;12635;50.852;5.676;2023-07-16T01:31:08;17.20;99.90
24470;DHT22;12635;50.852;5.676;2023-07-16T01:33:37;17.10;99.90
24470;DHT22;12635;50.852;5.676;2023-07-16T01:36:05;17.10;99.90
24470;DHT22;12635;50.852;5.676;2023-07-16T01:38:33;17.00;99.90
24470;DHT22;12635;50.852;5.676;2023-07-16T01:41:00;17.00;99.90
24470;DHT22;12635;50.852;5.676;2023-07-16T01:43:29;16.90;99.90
24470;DHT22;12635;50.852;5.676;2023-07-16T01:45:56;16.90;99.90
24470;DHT22;12635;50.852;5.676;2023-07-16T01:48:34;16.90;99.90
24470;DHT22;12635;50.852;5.676;2023-07-16T01:51:02;16.80;99.90
24470;DHT22;12635;50.852;5.676;2023-07-16T01:53:29;16.80;99.90
24470;DHT22;12635;50.852;5.676;2023-07-16T01:55:57;16.80;99.90
24470;DHT22;12635;50.852;5.676;2023-07-16T01:58:24;16.80;99.90
24470;DHT22;12635;50.852;5.676;2023-07-16T02:00:50;16.80;99.90
24470;DHT22;12635;50.852;5.676;2023-07-16T02:03:17;16.90;99.90
24470;DHT22;12635;50.852;5.676;2023-07-16T02:05:46;16.80;99.90
24470;DHT22;12635;50.852;5.676;2023-07-16T02:08:13;16.80;99.90
24470;DHT22;12635;50.852;5.676;2023-07-16T02:10:39;16.80;99.90
24470;DHT22;12635;50.852;5.676;2023-07-16T02:13:06;16.70;99.90
24470;DHT22;12635;50.852;5.676;2023-07-16T02:15:33;16.60;99.90
24470;DHT22;12635;50.852;5.676;2023-07-16T02:18:00;16.60;99.90
24470;DHT22;12635;50.852;5.676;2023-07-16T02:20:27;16.60;99.90
24470;DHT22;12635;50.852;5.676;2023-07-16T02:22:55;16.60;99.90
24470;DHT22;12635;50.852;5.676;2023-07-16T02:25:22;16.60;99.90
24470;DHT22;12635;50.852;5.676;2023-07-16T02:27:50;16.60;99.90
24470;DHT22;12635;50.852;5.676;2023-07-16T02:30:17;16.60;99.90
24470;DHT22;12635;50.852;5.676;2023-07-16T02:32:44;16.60;99.90
24470;DHT22;12635;50.852;5.676;2023-07-16T02:35:11;16.50;99.90
24470;DHT22;12635;50.852;5.676;2023-07-16T02:37:38;16.60;99.90
24470;DHT22;12635;50.852;5.676;2023-07-16T02:40:08;16.50;99.90
24470;DHT22;12635;50.852;5.676;2023-07-16T02:42:35;16.50;99.90
24470;DHT22;12635;50.852;5.676;2023-07-16T02:45:01;16.60;99.90
24470;DHT22;12635;50.852;5.676;2023-07-16T02:47:28;16.50;99.90
24470;DHT22;12635;50.852;5.676;2023-07-16T02:49:55;16.40;99.90
24470;DHT22;12635;50.852;5.676;2023-07-16T02:52:22;16.40;99.90
24470;DHT22;12635;50.852;5.676;2023-07-16T02:54:50;16.40;99.90
24470;DHT22;12635;50.852;5.676;2023-07-16T02:57:18;16.40;99.90
24470;DHT22;12635;50.852;5.676;2023-07-16T02:59:45;16.40;99.90
24470;DHT22;12635;50.852;5.676;2023-07-16T03:02:12;16.40;99.90
24470;DHT22;12635;50.852;5.676;2023-07-16T03:04:38;16.40;99.90
24470;DHT22;12635;50.852;5.676;2023-07-16T03:07:07;16.30;99.90
24470;DHT22;12635;50.852;5.676;2023-07-16T03:09:33;16.40;99.90
24470;DHT22;12635;50.852;5.676;2023-07-16T03:12:00;16.50;99.90
24470;DHT22;12635;50.852;5.676;2023-07-16T03:14:29;16.50;99.90
24470;DHT22;12635;50.852;5.676;2023-07-16T03:16:56;16.30;99.90
24470;DHT22;12635;50.852;5.676;2023-07-16T03:19:22;16.20;99.90
24470;DHT22;12635;50.852;5.676;2023-07-16T03:21:49;16.20;99.90
24470;DHT22;12635;50.852;5.676;2023-07-16T03:24:16;16.10;99.90
24470;DHT22;12635;50.852;5.676;2023-07-16T03:26:43;16.10;99.90
24470;DHT22;12635;50.852;5.676;2023-07-16T03:29:10;16.20;99.90
24470;DHT22;12635;50.852;5.676;2023-07-16T03:31:38;16.10;99.90
24470;DHT22;12635;50.852;5.676;2023-07-16T03:34:05;16.10;99.90
24470;DHT22;12635;50.852;5.676;2023-07-16T03:36:32;16.10;99.90
24470;DHT22;12635;50.852;5.676;2023-07-16T03:38:59;16.00;99.90
24470;DHT22;12635;50.852;5.676;2023-07-16T03:41:25;16.00;99.90
24470;DHT22;12635;50.852;5.676;2023-07-16T03:43:52;16.00;99.90
24470;DHT22;12635;50.852;5.676;2023-07-16T03:46:19;16.00;99.90
24470;DHT22;12635;50.852;5.676;2023-07-16T03:48:48;16.10;99.90
24470;DHT22;12635;50.852;5.676;2023-07-16T03:51:14;16.10;99.90
24470;DHT22;12635;50.852;5.676;2023-07-16T03:53:42;16.20;99.90
24470;DHT22;12635;50.852;5.676;2023-07-16T03:56:09;16.20;99.90
24470;DHT22;12635;50.852;5.676;2023-07-16T03:58:36;16.20;99.90
24470;DHT22;12635;50.852;5.676;2023-07-16T04:01:03;16.20;99.90
24470;DHT22;12635;50.852;5.676;2023-07-16T04:03:30;16.10;99.90
24470;DHT22;12635;50.852;5.676;2023-07-16T04:06:02;16.20;99.90
24470;DHT22;12635;50.852;5.676;2023-07-16T04:08:29;16.20;99.90
24470;DHT22;12635;50.852;5.676;2023-07-16T04:10:55;16.20;99.90
24470;DHT22;12635;50.852;5.676;2023-07-16T04:13:22;16.20;99.90
24470;DHT22;12635;50.852;5.676;2023-07-16T04:15:49;16.00;99.90
24470;DHT22;12635;50.852;5.676;2023-07-16T04:18:18;16.00;99.90
24470;DHT22;12635;50.852;5.676;2023-07-16T04:20:45;15.90;99.90
24470;DHT22;12635;50.852;5.676;2023-07-16T04:23:13;16.00;99.90
24470;DHT22;12635;50.852;5.676;2023-07-16T04:25:40;16.10;99.90
24470;DHT22;12635;50.852;5.676;2023-07-16T04:28:07;16.20;99.90
24470;DHT22;12635;50.852;5.676;2023-07-16T04:30:34;16.10;99.90
24470;DHT22;12635;50.852;5.676;2023-07-16T04:33:02;16.20;99.90
24470;DHT22;12635;50.852;5.676;2023-07-16T04:35:29;16.30;99.90
24470;DHT22;12635;50.852;5.676;2023-07-16T04:37:56;16.30;99.90
24470;DHT22;12635;50.852;5.676;2023-07-16T04:40:25;16.30;99.90
24470;DHT22;12635;50.852;5.676;2023-07-16T04:42:51;16.30;99.90
24470;DHT22;12635;50.852;5.676;2023-07-16T04:45:18;16.30;99.90
24470;DHT22;12635;50.852;5.676;2023-07-16T04:47:45;16.40;99.90
24470;DHT22;12635;50.852;5.676;2023-07-16T04:50:12;16.50;99.90
24470;DHT22;12635;50.852;5.676;2023-07-16T04:52:39;16.40;99.90
24470;DHT22;12635;50.852;5.676;2023-07-16T04:55:06;16.40;99.90
24470;DHT22;12635;50.852;5.676;2023-07-16T04:57:34;16.50;99.90
24470;DHT22;12635;50.852;5.676;2023-07-16T05:00:02;16.50;99.90
24470;DHT22;12635;50.852;5.676;2023-07-16T05:02:31;16.80;99.90
24470;DHT22;12635;50.852;5.676;2023-07-16T05:04:58;17.10;99.90
24470;DHT22;12635;50.852;5.676;2023-07-16T05:07:25;17.30;99.90
24470;DHT22;12635;50.852;5.676;2023-07-16T05:09:52;17.30;99.90
24470;DHT22;12635;50.852;5.676;2023-07-16T05:12:19;17.00;99.90
24470;DHT22;12635;50.852;5.676;2023-07-16T05:14:47;16.90;99.90
24470;DHT22;12635;50.852;5.676;2023-07-16T05:17:14;16.80;99.90
24470;DHT22;12635;50.852;5.676;2023-07-16T05:19:41;16.80;99.90
24470;DHT22;12635;50.852;5.676;2023-07-16T05:22:09;16.80;99.90
24470;DHT22;12635;50.852;5.676;2023-07-16T05:24:36;16.80;99.90
24470;DHT22;12635;50.852;5.676;2023-07-16T05:27:03;16.90;99.90
24470;DHT22;12635;50.852;5.676;2023-07-16T05:29:30;17.00;99.90
24470;DHT22;12635;50.852;5.676;2023-07-16T05:31:58;17.00;99.90
24470;DHT22;12635;50.852;5.676;2023-07-16T05:34:25;17.10;99.90
24470;DHT22;12635;50.852;5.676;2023-07-16T05:36:53;17.20;99.90
24470;DHT22;12635;50.852;5.676;2023-07-16T05:39:20;17.30;99.90
24470;DHT22;12635;50.852;5.676;2023-07-16T05:41:47;17.30;99.90
24470;DHT22;12635;50.852;5.676;2023-07-16T05:44:14;17.40;99.90
24470;DHT22;12635;50.852;5.676;2023-07-16T05:46:41;17.40;99.90
24470;DHT22;12635;50.852;5.676;2023-07-16T05:49:09;17.70;99.90
24470;DHT22;12635;50.852;5.676;2023-07-16T05:51:36;18.10;99.90
24470;DHT22;12635;50.852;5.676;2023-07-16T05:54:03;18.80;99.90
24470;DHT22;12635;50.852;5.676;2023-07-16T05:56:30;18.80;99.90
24470;DHT22;12635;50.852;5.676;2023-07-16T05:58:57;19.40;99.90
24470;DHT22;12635;50.852;5.676;2023-07-16T06:01:24;19.20;99.90
24470;DHT22;12635;50.852;5.676;2023-07-16T06:03:51;19.10;99.90
24470;DHT22;12635;50.852;5.676;2023-07-16T06:06:19;19.60;99.90
24470;DHT22;12635;50.852;5.676;2023-07-16T06:08:46;19.80;99.90
24470;DHT22;12635;50.852;5.676;2023-07-16T06:11:13;19.70;99.90
24470;DHT22;12635;50.852;5.676;2023-07-16T06:13:40;19.60;99.90
24470;DHT22;12635;50.852;5.676;2023-07-16T06:16:07;19.90;99.90
24470;DHT22;12635;50.852;5.676;2023-07-16T06:18:34;19.50;99.90
24470;DHT22;12635;50.852;5.676;2023-07-16T06:21:01;19.70;99.90
24470;DHT22;12635;50.852;5.676;2023-07-16T06:23:29;19.90;99.90
24470;DHT22;12635;50.852;5.676;2023-07-16T06:25:56;19.90;99.90
24470;DHT22;12635;50.852;5.676;2023-07-16T06:28:23;20.30;99.90
24470;DHT22;12635;50.852;5.676;2023-07-16T06:30:50;20.50;99.90
24470;DHT22;12635;50.852;5.676;2023-07-16T06:33:17;20.10;99.90
24470;DHT22;12635;50.852;5.676;2023-07-16T06:35:45;21.30;99.90
24470;DHT22;12635;50.852;5.676;2023-07-16T06:38:12;21.00;99.90
24470;DHT22;12635;50.852;5.676;2023-07-16T06:40:45;20.90;99.90
24470;DHT22;12635;50.852;5.676;2023-07-16T06:43:12;20.70;99.90
24470;DHT22;12635;50.852;5.676;2023-07-16T06:45:39;20.90;99.90
24470;DHT22;12635;50.852;5.676;2023-07-16T06:48:06;20.80;99.90
24470;DHT22;12635;50.852;5.676;2023-07-16T06:50:33;20.40;99.90
24470;DHT22;12635;50.852;5.676;2023-07-16T06:53:00;20.40;99.90
24470;DHT22;12635;50.852;5.676;2023-07-16T06:55:27;20.60;99.90
24470;DHT22;12635;50.852;5.676;2023-07-16T06:57:55;20.80;99.90
24470;DHT22;12635;50.852;5.676;2023-07-16T07:00:22;21.30;99.90
24470;DHT22;12635;50.852;5.676;2023-07-16T07:02:49;20.50;99.90
24470;DHT22;12635;50.852;5.676;2023-07-16T07:05:16;20.70;99.90
24470;DHT22;12635;50.852;5.676;2023-07-16T07:07:42;21.20;99.90
24470;DHT22;12635;50.852;5.676;2023-07-16T07:10:11;20.60;99.90
24470;DHT22;12635;50.852;5.676;2023-07-16T07:12:38;20.90;99.90
24470;DHT22;12635;50.852;5.676;2023-07-16T07:15:07;20.70;99.90
24470;DHT22;12635;50.852;5.676;2023-07-16T07:17:34;21.50;99.90
24470;DHT22;12635;50.852;5.676;2023-07-16T07:20:02;21.70;99.90
24470;DHT22;12635;50.852;5.676;2023-07-16T07:22:29;21.50;99.90
24470;DHT22;12635;50.852;5.676;2023-07-16T07:24:55;22.40;99.90
24470;DHT22;12635;50.852;5.676;2023-07-16T07:27:22;21.90;99.90
24470;DHT22;12635;50.852;5.676;2023-07-16T07:29:49;22.20;99.90
24470;DHT22;12635;50.852;5.676;2023-07-16T07:32:19;21.90;99.90
24470;DHT22;12635;50.852;5.676;2023-07-16T07:34:46;22.10;99.90
24470;DHT22;12635;50.852;5.676;2023-07-16T07:37:13;22.60;99.90
24470;DHT22;12635;50.852;5.676;2023-07-16T07:39:39;21.20;99.90
24470;DHT22;12635;50.852;5.676;2023-07-16T07:42:06;21.40;99.90
24470;DHT22;12635;50.852;5.676;2023-07-16T07:44:35;22.20;99.90
24470;DHT22;12635;50.852;5.676;2023-07-16T07:47:02;21.50;99.90
24470;DHT22;12635;50.852;5.676;2023-07-16T07:49:30;21.70;99.90
24470;DHT22;12635;50.852;5.676;2023-07-16T07:51:58;22.20;99.90
24470;DHT22;12635;50.852;5.676;2023-07-16T07:54:25;21.60;99.90
24470;DHT22;12635;50.852;5.676;2023-07-16T07:56:52;21.50;99.90
24470;DHT22;12635;50.852;5.676;2023-07-16T07:59:19;23.40;99.90
24470;DHT22;12635;50.852;5.676;2023-07-16T08:01:46;23.50;99.90
24470;DHT22;12635;50.852;5.676;2023-07-16T08:04:13;22.60;99.90
24470;DHT22;12635;50.852;5.676;2023-07-16T08:06:41;21.80;99.90
24470;DHT22;12635;50.852;5.676;2023-07-16T08:09:08;21.80;99.90
24470;DHT22;12635;50.852;5.676;2023-07-16T08:11:35;21.80;99.90
24470;DHT22;12635;50.852;5.676;2023-07-16T08:14:02;22.50;99.90
24470;DHT22;12635;50.852;5.676;2023-07-16T08:16:29;21.70;99.90
24470;DHT22;12635;50.852;5.676;2023-07-16T08:18:56;22.00;99.90
24470;DHT22;12635;50.852;5.676;2023-07-16T08:21:23;23.50;99.90
24470;DHT22;12635;50.852;5.676;2023-07-16T08:23:51;22.80;99.90
24470;DHT22;12635;50.852;5.676;2023-07-16T08:26:18;22.30;99.90
24470;DHT22;12635;50.852;5.676;2023-07-16T08:28:45;22.40;99.90
24470;DHT22;12635;50.852;5.676;2023-07-16T08:31:12;23.20;99.90
24470;DHT22;12635;50.852;5.676;2023-07-16T08:33:39;21.80;99.90
24470;DHT22;12635;50.852;5.676;2023-07-16T08:36:06;22.70;99.90
24470;DHT22;12635;50.852;5.676;2023-07-16T08:38:33;22.60;99.90
24470;DHT22;12635;50.852;5.676;2023-07-16T08:41:01;22.20;99.90
24470;DHT22;12635;50.852;5.676;2023-07-16T08:43:28;21.50;99.90
24470;DHT22;12635;50.852;5.676;2023-07-16T08:45:56;21.50;99.90
24470;DHT22;12635;50.852;5.676;2023-07-16T08:48:23;21.50;99.90
24470;DHT22;12635;50.852;5.676;2023-07-16T08:50:50;21.70;99.90
24470;DHT22;12635;50.852;5.676;2023-07-16T08:53:17;22.20;99.90
24470;DHT22;12635;50.852;5.676;2023-07-16T08:55:44;22.60;99.90
24470;DHT22;12635;50.852;5.676;2023-07-16T08:58:12;22.30;99.90
24470;DHT22;12635;50.852;5.676;2023-07-16T09:00:40;22.00;99.90
24470;DHT22;12635;50.852;5.676;2023-07-16T09:03:08;22.30;99.90
24470;DHT22;12635;50.852;5.676;2023-07-16T09:05:35;22.80;99.90
24470;DHT22;12635;50.852;5.676;2023-07-16T09:08:02;22.60;99.90
24470;DHT22;12635;50.852;5.676;2023-07-16T09:10:29;23.60;99.90
24470;DHT22;12635;50.852;5.676;2023-07-16T09:12:57;23.90;99.90
24470;DHT22;12635;50.852;5.676;2023-07-16T09:15:26;25.30;99.90
24470;DHT22;12635;50.852;5.676;2023-07-16T09:17:53;25.30;99.90
24470;DHT22;12635;50.852;5.676;2023-07-16T09:20:20;24.50;99.90
24470;DHT22;12635;50.852;5.676;2023-07-16T09:22:49;22.40;99.90
24470;DHT22;12635;50.852;5.676;2023-07-16T09:25:15;22.50;99.90
24470;DHT22;12635;50.852;5.676;2023-07-16T09:27:43;23.50;99.90
24470;DHT22;12635;50.852;5.676;2023-07-16T09:30:14;24.20;99.90
24470;DHT22;12635;50.852;5.676;2023-07-16T09:32:43;24.30;99.90
24470;DHT22;12635;50.852;5.676;2023-07-16T09:35:11;24.90;99.90
24470;DHT22;12635;50.852;5.676;2023-07-16T09:37:38;24.80;99.90
24470;DHT22;12635;50.852;5.676;2023-07-16T09:40:06;25.30;99.90
24470;DHT22;12635;50.852;5.676;2023-07-16T09:42:36;24.80;99.90
24470;DHT22;12635;50.852;5.676;2023-07-16T09:45:05;24.20;99.90
24470;DHT22;12635;50.852;5.676;2023-07-16T09:47:32;23.10;99.90
24470;DHT22;12635;50.852;5.676;2023-07-16T09:50:00;23.30;99.90
24470;DHT22;12635;50.852;5.676;2023-07-16T09:52:27;25.00;99.90
24470;DHT22;12635;50.852;5.676;2023-07-16T09:54:55;24.40;99.90
24470;DHT22;12635;50.852;5.676;2023-07-16T09:57:22;23.30;99.90
24470;DHT22;12635;50.852;5.676;2023-07-16T09:59:49;22.20;99.90
24470;DHT22;12635;50.852;5.676;2023-07-16T10:02:17;22.00;99.90
24470;DHT22;12635;50.852;5.676;2023-07-16T10:04:44;22.10;99.90
24470;DHT22;12635;50.852;5.676;2023-07-16T10:07:19;23.10;99.90
24470;DHT22;12635;50.852;5.676;2023-07-16T10:09:50;23.60;99.90
24470;DHT22;12635;50.852;5.676;2023-07-16T10:12:18;24.00;99.90
24470;DHT22;12635;50.852;5.676;2023-07-16T10:14:46;23.20;99.90
24470;DHT22;12635;50.852;5.676;2023-07-16T10:17:14;24.20;99.90
24470;DHT22;12635;50.852;5.676;2023-07-16T10:22:35;23.40;99.90
24470;DHT22;12635;50.852;5.676;2023-07-16T10:25:03;23.00;99.90
24470;DHT22;12635;50.852;5.676;2023-07-16T10:27:30;22.90;99.90
24470;DHT22;12635;50.852;5.676;2023-07-16T10:29:58;23.80;99.90
24470;DHT22;12635;50.852;5.676;2023-07-16T10:32:27;24.50;99.90
24470;DHT22;12635;50.852;5.676;2023-07-16T10:34:54;25.20;99.90
24470;DHT22;12635;50.852;5.676;2023-07-16T10:37:21;24.20;99.90
24470;DHT22;12635;50.852;5.676;2023-07-16T10:39:50;23.90;99.90
24470;DHT22;12635;50.852;5.676;2023-07-16T10:42:17;23.60;99.90
24470;DHT22;12635;50.852;5.676;2023-07-16T10:44:45;23.10;99.90
24470;DHT22;12635;50.852;5.676;2023-07-16T10:47:18;22.80;99.90
24470;DHT22;12635;50.852;5.676;2023-07-16T10:49:46;22.90;99.90
24470;DHT22;12635;50.852;5.676;2023-07-16T10:52:13;22.80;99.90
24470;DHT22;12635;50.852;5.676;2023-07-16T10:54:39;22.70;99.90
24470;DHT22;12635;50.852;5.676;2023-07-16T10:57:08;22.50;99.90
24470;DHT22;12635;50.852;5.676;2023-07-16T10:59:36;22.00;99.90
24470;DHT22;12635;50.852;5.676;2023-07-16T11:02:03;21.90;99.90
24470;DHT22;12635;50.852;5.676;2023-07-16T11:04:33;22.60;99.90
24470;DHT22;12635;50.852;5.676;2023-07-16T11:07:03;23.40;99.90
24470;DHT22;12635;50.852;5.676;2023-07-16T11:09:31;23.10;99.90
24470;DHT22;12635;50.852;5.676;2023-07-16T11:12:04;23.40;99.90
24470;DHT22;12635;50.852;5.676;2023-07-16T11:14:33;23.40;99.90
24470;DHT22;12635;50.852;5.676;2023-07-16T11:17:03;23.20;99.90
24470;DHT22;12635;50.852;5.676;2023-07-16T11:19:31;23.70;99.90
24470;DHT22;12635;50.852;5.676;2023-07-16T11:21:59;23.60;99.90
24470;DHT22;12635;50.852;5.676;2023-07-16T11:24:26;23.10;99.90
24470;DHT22;12635;50.852;5.676;2023-07-16T11:26:53;22.90;99.90
24470;DHT22;12635;50.852;5.676;2023-07-16T11:29:22;23.40;99.90
24470;DHT22;12635;50.852;5.676;2023-07-16T11:31:51;23.10;99.90
24470;DHT22;12635;50.852;5.676;2023-07-16T11:34:21;22.90;99.90
24470;DHT22;12635;50.852;5.676;2023-07-16T11:36:48;22.80;99.90
24470;DHT22;12635;50.852;5.676;2023-07-16T11:39:15;22.80;99.90
24470;DHT22;12635;50.852;5.676;2023-07-16T11:41:42;22.50;99.90
24470;DHT22;12635;50.852;5.676;2023-07-16T11:44:19;22.70;99.90
24470;DHT22;12635;50.852;5.676;2023-07-16T11:46:46;22.90;99.90
24470;DHT22;12635;50.852;5.676;2023-07-16T11:49:15;23.60;99.90
24470;DHT22;12635;50.852;5.676;2023-07-16T11:51:42;23.60;99.90
24470;DHT22;12635;50.852;5.676;2023-07-16T11:54:09;23.90;99.90
24470;DHT22;12635;50.852;5.676;2023-07-16T11:56:36;23.30;99.90
24470;DHT22;12635;50.852;5.676;2023-07-16T11:59:03;22.80;99.90
24470;DHT22;12635;50.852;5.676;2023-07-16T12:01:30;22.50;99.90
24470;DHT22;12635;50.852;5.676;2023-07-16T12:03:57;22.70;99.90
24470;DHT22;12635;50.852;5.676;2023-07-16T12:06:25;22.60;99.90
24470;DHT22;12635;50.852;5.676;2023-07-16T12:08:52;22.70;99.90
24470;DHT22;12635;50.852;5.676;2023-07-16T12:11:20;22.90;99.90
24470;DHT22;12635;50.852;5.676;2023-07-16T12:13:47;23.20;99.90
24470;DHT22;12635;50.852;5.676;2023-07-16T12:16:14;23.10;99.90
24470;DHT22;12635;50.852;5.676;2023-07-16T12:18:41;23.40;99.90
24470;DHT22;12635;50.852;5.676;2023-07-16T12:21:08;23.40;99.90
24470;DHT22;12635;50.852;5.676;2023-07-16T12:23:36;23.50;99.90
24470;DHT22;12635;50.852;5.676;2023-07-16T12:26:03;23.30;99.90
24470;DHT22;12635;50.852;5.676;2023-07-16T12:28:30;23.70;99.90
24470;DHT22;12635;50.852;5.676;2023-07-16T12:30:56;24.20;99.90
24470;DHT22;12635;50.852;5.676;2023-07-16T12:33:23;24.10;99.90
24470;DHT22;12635;50.852;5.676;2023-07-16T12:35:50;24.20;99.90
24470;DHT22;12635;50.852;5.676;2023-07-16T12:38:17;24.40;99.90
24470;DHT22;12635;50.852;5.676;2023-07-16T12:40:46;24.00;99.90
24470;DHT22;12635;50.852;5.676;2023-07-16T12:43:12;24.60;99.90
24470;DHT22;12635;50.852;5.676;2023-07-16T12:45:39;25.70;99.90
24470;DHT22;12635;50.852;5.676;2023-07-16T12:48:06;26.00;99.90
24470;DHT22;12635;50.852;5.676;2023-07-16T12:50:33;26.10;99.90
24470;DHT22;12635;50.852;5.676;2023-07-16T12:53:00;24.90;99.90
24470;DHT22;12635;50.852;5.676;2023-07-16T12:55:27;25.40;99.90
24470;DHT22;12635;50.852;5.676;2023-07-16T12:57:58;25.00;99.90
24470;DHT22;12635;50.852;5.676;2023-07-16T13:00:24;24.90;99.90
24470;DHT22;12635;50.852;5.676;2023-07-16T13:02:51;25.60;99.90
24470;DHT22;12635;50.852;5.676;2023-07-16T13:05:18;25.10;99.90
24470;DHT22;12635;50.852;5.676;2023-07-16T13:07:45;24.20;99.90
24470;DHT22;12635;50.852;5.676;2023-07-16T13:10:12;24.00;99.90
24470;DHT22;12635;50.852;5.676;2023-07-16T13:12:39;23.90;99.90
24470;DHT22;12635;50.852;5.676;2023-07-16T13:15:08;23.60;99.90
24470;DHT22;12635;50.852;5.676;2023-07-16T13:17:35;23.40;99.90
24470;DHT22;12635;50.852;5.676;2023-07-16T13:20:02;23.50;99.90
24470;DHT22;12635;50.852;5.676;2023-07-16T13:22:30;23.30;99.90
24470;DHT22;12635;50.852;5.676;2023-07-16T13:24:57;23.20;99.90
24470;DHT22;12635;50.852;5.676;2023-07-16T13:27:25;23.50;99.90
24470;DHT22;12635;50.852;5.676;2023-07-16T13:29:51;23.70;99.90
24470;DHT22;12635;50.852;5.676;2023-07-16T13:32:20;24.10;99.90
24470;DHT22;12635;50.852;5.676;2023-07-16T13:34:47;24.00;99.90
24470;DHT22;12635;50.852;5.676;2023-07-16T13:37:14;24.20;99.90
24470;DHT22;12635;50.852;5.676;2023-07-16T13:39:41;24.00;99.90
24470;DHT22;12635;50.852;5.676;2023-07-16T13:42:08;23.80;99.90
24470;DHT22;12635;50.852;5.676;2023-07-16T13:44:36;23.50;99.90
24470;DHT22;12635;50.852;5.676;2023-07-16T13:47:03;23.80;99.90
24470;DHT22;12635;50.852;5.676;2023-07-16T13:49:31;23.60;99.90
24470;DHT22;12635;50.852;5.676;2023-07-16T13:51:58;24.20;99.90
24470;DHT22;12635;50.852;5.676;2023-07-16T13:54:25;24.80;99.90
24470;DHT22;12635;50.852;5.676;2023-07-16T13:56:52;25.50;99.90
24470;DHT22;12635;50.852;5.676;2023-07-16T13:59:19;24.70;99.90
24470;DHT22;12635;50.852;5.676;2023-07-16T14:01:46;24.40;99.90
24470;DHT22;12635;50.852;5.676;2023-07-16T14:04:13;24.50;99.90
24470;DHT22;12635;50.852;5.676;2023-07-16T14:06:41;24.40;99.90
24470;DHT22;12635;50.852;5.676;2023-07-16T14:09:08;24.30;99.90
24470;DHT22;12635;50.852;5.676;2023-07-16T14:11:35;24.00;99.90
24470;DHT22;12635;50.852;5.676;2023-07-16T14:14:02;24.80;99.90
24470;DHT22;12635;50.852;5.676;2023-07-16T14:16:29;25.50;99.90
24470;DHT22;12635;50.852;5.676;2023-07-16T14:18:56;25.50;99.90
24470;DHT22;12635;50.852;5.676;2023-07-16T14:21:23;24.60;99.90
24470;DHT22;12635;50.852;5.676;2023-07-16T14:23:52;24.50;99.90
24470;DHT22;12635;50.852;5.676;2023-07-16T14:26:19;24.30;99.90
24470;DHT22;12635;50.852;5.676;2023-07-16T14:28:46;24.00;99.90
24470;DHT22;12635;50.852;5.676;2023-07-16T14:31:13;23.90;99.90
24470;DHT22;12635;50.852;5.676;2023-07-16T14:33:40;23.90;99.90
24470;DHT22;12635;50.852;5.676;2023-07-16T14:36:07;24.20;99.90
24470;DHT22;12635;50.852;5.676;2023-07-16T14:38:34;24.20;99.90
24470;DHT22;12635;50.852;5.676;2023-07-16T14:41:02;24.30;99.90
24470;DHT22;12635;50.852;5.676;2023-07-16T14:43:30;24.40;99.90
24470;DHT22;12635;50.852;5.676;2023-07-16T14:45:57;24.90;99.90
24470;DHT22;12635;50.852;5.676;2023-07-16T14:48:23;24.90;99.90
24470;DHT22;12635;50.852;5.676;2023-07-16T14:50:52;25.50;99.90
24470;DHT22;12635;50.852;5.676;2023-07-16T14:53:19;26.60;99.90
24470;DHT22;12635;50.852;5.676;2023-07-16T14:55:47;26.00;99.90
24470;DHT22;12635;50.852;5.676;2023-07-16T14:58:15;25.50;99.90
24470;DHT22;12635;50.852;5.676;2023-07-16T15:00:42;25.40;99.90
24470;DHT22;12635;50.852;5.676;2023-07-16T15:03:09;25.30;99.90
24470;DHT22;12635;50.852;5.676;2023-07-16T15:05:36;25.40;99.90
24470;DHT22;12635;50.852;5.676;2023-07-16T15:08:03;25.10;99.90
24470;DHT22;12635;50.852;5.676;2023-07-16T15:10:30;24.60;99.90
24470;DHT22;12635;50.852;5.676;2023-07-16T15:12:57;24.40;99.90
24470;DHT22;12635;50.852;5.676;2023-07-16T15:15:25;24.30;99.90
24470;DHT22;12635;50.852;5.676;2023-07-16T15:17:52;24.50;99.90
24470;DHT22;12635;50.852;5.676;2023-07-16T15:20:19;24.70;99.90
24470;DHT22;12635;50.852;5.676;2023-07-16T15:22:47;24.40;99.90
24470;DHT22;12635;50.852;5.676;2023-07-16T15:25:14;24.20;99.90
24470;DHT22;12635;50.852;5.676;2023-07-16T15:27:41;24.30;99.90
24470;DHT22;12635;50.852;5.676;2023-07-16T15:30:09;24.30;99.90
24470;DHT22;12635;50.852;5.676;2023-07-16T15:32:38;24.10;99.90
24470;DHT22;12635;50.852;5.676;2023-07-16T15:35:05;24.20;99.90
24470;DHT22;12635;50.852;5.676;2023-07-16T15:37:32;24.50;99.90
24470;DHT22;12635;50.852;5.676;2023-07-16T15:39:58;24.60;99.90